Time;durP1;ratioP1;P1;durP2;ratioP2;P2;SDS_P1;SDS_P2;PMS_P1;PMS_P2;Temp;Humidity;BMP_temperature;BMP_pressure;BME280_temperature;BME280_humidity;BME280_pressure;Samples;Min_cycle;Max_cycle;Signal;HPM_P1;HPM_P2
2022/12/10 00:01:30;;;;;;;74.00;32.53;;;;;;;-0.46;86.07;100448.25;5138651;27;20183;-69
2022/12/10 00:03:57;;;;;;;74.10;33.77;;;;;;;-0.50;86.43;100448.41;5138456;27;20203;-70
2022/12/10 00:06:27;;;;;;;75.53;33.07;;;;;;;-0.47;86.76;100448.31;5138257;27;20191;-69
2022/12/10 00:08:54;;;;;;;65.57;30.13;;;;;;;-0.48;86.09;100459.72;5138498;27;20185;-69
2022/12/10 00:11:22;;;;;;;82.33;33.80;;;;;;;-0.48;87.00;100454.47;5138469;27;20188;-69
2022/12/10 00:13:50;;;;;;;74.83;33.50;;;;;;;-0.49;87.00;100447.50;5138516;27;20219;-69
2022/12/10 00:16:18;;;;;;;67.50;30.17;;;;;;;-0.50;87.14;100456.31;5138331;27;20630;-69
2022/12/10 00:18:45;;;;;;;56.17;28.17;;;;;;;-0.55;86.51;100460.81;5138028;27;20176;-69
2022/12/10 00:21:15;;;;;;;56.43;26.87;;;;;;;-0.61;86.24;100461.88;5137964;27;20566;-69
2022/12/10 00:23:42;;;;;;;74.60;33.10;;;;;;;-0.63;86.38;100462.81;5137905;27;20182;-69
2022/12/10 00:26:11;;;;;;;68.40;29.10;;;;;;;-0.60;86.70;100460.09;5137844;27;20177;-69
2022/12/10 00:28:39;;;;;;;65.43;29.13;;;;;;;-0.68;86.91;100462.97;5119343;27;20228;-69
2022/12/10 00:31:09;;;;;;;79.97;34.27;;;;;;;-0.73;87.16;100457.84;5137761;27;20222;-69
2022/12/10 00:33:36;;;;;;;69.03;30.40;;;;;;;-0.71;86.42;100460.44;5137582;27;20218;-69
2022/12/10 00:36:05;;;;;;;65.87;29.80;;;;;;;-0.72;86.07;100458.69;5137778;27;20219;-69
2022/12/10 00:38:31;;;;;;;62.63;29.47;;;;;;;-0.71;87.15;100457.81;5137623;27;20194;-69
2022/12/10 00:40:58;;;;;;;76.53;30.87;;;;;;;-0.68;87.33;100465.59;5138161;27;20195;-69
2022/12/10 00:43:25;;;;;;;69.20;31.73;;;;;;;-0.70;87.17;100468.25;5119115;27;20232;-68
2022/12/10 00:45:52;;;;;;;74.17;32.27;;;;;;;-0.71;86.98;100465.69;5137386;27;20243;-68
2022/12/10 00:48:20;;;;;;;83.67;33.53;;;;;;;-0.74;87.02;100460.50;5119342;27;20616;-68
2022/12/10 00:51:01;;;;;;;73.83;32.93;;;;;;;-0.77;87.38;100461.44;5118947;27;20194;-68
2022/12/10 00:53:29;;;;;;;74.17;31.03;;;;;;;-0.77;87.48;100463.22;5118886;27;20215;-68
2022/12/10 00:55:57;;;;;;;71.17;30.70;;;;;;;-0.74;86.80;100466.66;5137228;27;20324;-68
2022/12/10 00:58:25;;;;;;;69.20;31.33;;;;;;;-0.73;86.49;100468.34;5137172;27;20187;-68
2022/12/10 01:00:52;;;;;;;79.77;32.63;;;;;;;-0.70;86.51;100467.41;5137465;27;20565;-68
2022/12/10 01:03:18;;;;;;;66.23;31.80;;;;;;;-0.72;87.41;100470.09;5137687;27;20187;-68
2022/12/10 01:05:45;;;;;;;72.83;32.47;;;;;;;-0.75;87.01;100467.53;5137057;27;20211;-68
2022/12/10 01:08:12;;;;;;;78.73;34.27;;;;;;;-0.73;86.76;100470.13;5117303;27;20246;-68
2022/12/10 01:10:39;;;;;;;79.73;32.13;;;;;;;-0.76;86.82;100476.34;5137329;27;20533;-68
2022/12/10 01:13:06;;;;;;;68.70;33.70;;;;;;;-0.79;86.72;100475.56;5118511;27;20238;-68
2022/12/10 01:15:37;;;;;;;66.83;31.70;;;;;;;-0.86;86.75;100475.75;5136915;27;20237;-68
2022/12/10 01:18:03;;;;;;;83.23;33.87;;;;;;;-0.77;86.53;100474.59;5137179;27;20515;-68
2022/12/10 01:20:34;;;;;;;76.57;32.97;;;;;;;-0.80;86.59;100469.44;5118322;27;20209;-68
2022/12/10 01:23:01;;;;;;;73.17;34.93;;;;;;;-0.83;86.53;100471.31;5118361;27;20212;-68
2022/12/10 01:25:27;;;;;;;79.80;35.13;;;;;;;-0.93;86.38;100474.19;5118246;27;20579;-68
2022/12/10 01:27:54;;;;;;;79.23;34.63;;;;;;;-0.99;87.06;100481.41;5118340;27;20196;-68
2022/12/10 01:30:20;;;;;;;74.90;32.23;;;;;;;-1.07;87.17;100484.25;5136652;27;20181;-68
2022/12/10 01:32:46;;;;;;;82.27;34.63;;;;;;;-1.03;87.22;100490.25;5136490;27;20205;-68
2022/12/10 01:35:13;;;;;;;67.13;30.83;;;;;;;-1.06;87.39;100496.47;5118018;27;20219;-68
2022/12/10 01:37:40;;;;;;;75.60;31.20;;;;;;;-1.05;86.60;100497.31;5137306;27;20529;-68
2022/12/10 01:40:07;;;;;;;76.20;33.70;;;;;;;-1.04;86.92;100493.81;5136679;27;20211;-68
2022/12/10 01:42:34;;;;;;;70.70;34.07;;;;;;;-1.05;87.17;100492.06;5118051;27;20188;-68
2022/12/10 01:45:06;;;;;;;71.97;34.10;;;;;;;-1.03;87.33;100488.53;5136518;27;20214;-68
2022/12/10 01:47:33;;;;;;;74.27;34.43;;;;;;;-1.02;86.98;100494.63;5136907;27;20177;-68
2022/12/10 01:50:00;;;;;;;72.80;31.27;;;;;;;-1.02;87.33;100499.88;5117871;27;20681;-68
2022/12/10 01:52:28;;;;;;;70.43;32.43;;;;;;;-1.07;87.08;100502.63;5117645;27;20212;-68
2022/12/10 01:54:55;;;;;;;71.33;32.93;;;;;;;-1.04;87.19;100497.28;5117664;27;20208;-68
2022/12/10 01:57:25;;;;;;;77.23;33.90;;;;;;;-1.02;87.27;100499.88;5136070;27;20190;-68
2022/12/10 01:59:56;;;;;;;73.97;34.90;;;;;;;-1.02;88.00;100500.75;5117674;27;20190;-68
2022/12/10 02:02:31;;;;;;;78.33;34.20;;;;;;;-1.01;87.84;100493.72;5135982;27;20175;-68
2022/12/10 02:05:07;;;;;;;80.57;34.20;;;;;;;-1.03;87.64;100499.03;5135922;27;20196;-68
2022/12/10 02:07:55;;;;;;;73.80;33.33;;;;;;;-1.02;87.41;100499.88;5136211;27;20224;-68
2022/12/10 02:10:43;;;;;;;72.10;32.63;;;;;;;-1.03;87.91;100500.78;5117355;27;20196;-68
2022/12/10 02:13:25;;;;;;;70.00;32.33;;;;;;;-1.04;87.72;100499.06;5117294;27;20306;-68
2022/12/10 02:16:04;;;;;;;71.57;33.67;;;;;;;-1.05;87.34;100507.81;5136270;27;20248;-68
2022/12/10 02:18:37;;;;;;;71.70;33.73;;;;;;;-1.05;87.42;100508.72;5135904;27;20172;-68
2022/12/10 02:21:11;;;;;;;75.37;33.77;;;;;;;-1.10;88.10;100510.63;5135671;27;20192;-68
2022/12/10 02:23:51;;;;;;;67.57;31.50;;;;;;;-1.13;87.49;100502.78;5136147;27;20580;-68
2022/12/10 02:26:29;;;;;;;74.77;33.73;;;;;;;-1.14;87.76;100507.19;5135524;27;20176;-67
2022/12/10 02:29:12;;;;;;;70.73;32.67;;;;;;;-1.13;87.14;100508.03;5117147;27;20180;-67
2022/12/10 02:31:45;;;;;;;64.50;32.43;;;;;;;-1.17;87.40;100502.03;5135403;27;20175;-67
2022/12/10 02:34:16;;;;;;;75.13;31.57;;;;;;;-1.18;87.50;100494.19;5116855;27;20239;-67
2022/12/10 02:36:45;;;;;;;66.33;31.80;;;;;;;-1.20;87.32;100494.22;5135280;27;20186;-69
2022/12/10 02:39:20;;;;;;;70.90;31.77;;;;;;;-1.22;88.15;100498.66;5117153;27;20196;-68
2022/12/10 02:41:54;;;;;;;67.83;31.67;;;;;;;-1.23;87.73;100491.66;5117380;27;20281;-68
2022/12/10 02:44:24;;;;;;;73.03;33.53;;;;;;;-1.27;87.79;100491.78;5135378;27;20229;-68
2022/12/10 02:46:53;;;;;;;64.50;31.13;;;;;;;-1.28;87.90;100490.94;5116703;27;20193;-68
2022/12/10 02:49:24;;;;;;;75.90;32.13;;;;;;;-1.29;87.49;100490.09;5116974;27;20224;-68
2022/12/10 02:51:52;;;;;;;67.87;30.30;;;;;;;-1.32;87.73;100486.66;5116619;27;20188;-68
2022/12/10 02:54:40;;;;;;;63.03;30.10;;;;;;;-1.36;87.67;100490.28;5116367;27;20310;-68
2022/12/10 02:57:46;;;;;;;65.10;29.47;;;;;;;-1.39;87.84;100491.25;5117372;27;20217;-68
2022/12/10 03:00:16;;;;;;;61.83;29.60;;;;;;;-1.39;87.69;100493.88;5117353;27;20196;-68
2022/12/10 03:03:17;;;;;;;63.30;30.07;;;;;;;-1.38;87.66;100499.97;5116460;27;20534;-68
2022/12/10 03:05:52;;;;;;;63.30;31.63;;;;;;;-1.38;87.93;100499.97;5116360;27;20642;-68
2022/12/10 03:08:26;;;;;;;60.83;29.43;;;;;;;-1.39;87.92;100503.50;5134995;27;20180;-68
2022/12/10 03:11:13;;;;;;;64.40;31.33;;;;;;;-1.37;88.00;100513.03;5135010;27;20166;-68
2022/12/10 03:14:13;;;;;;;68.10;31.10;;;;;;;-1.31;87.74;100517.31;5134869;27;20208;-68
2022/12/10 03:16:49;;;;;;;61.67;30.90;;;;;;;-1.36;87.75;100504.28;5135170;27;20179;-68
2022/12/10 03:19:21;;;;;;;69.80;32.93;;;;;;;-1.43;87.38;100510.59;5134879;27;20188;-68
2022/12/10 03:21:51;;;;;;;84.50;34.80;;;;;;;-1.43;87.05;100517.63;5134417;27;20191;-68
2022/12/10 03:24:18;;;;;;;71.03;32.17;;;;;;;-1.43;87.43;100517.63;5134429;27;20218;-68
2022/12/10 03:26:48;;;;;;;75.03;33.60;;;;;;;-1.44;87.72;100508.84;5134434;27;20652;-68
2022/12/10 03:29:22;;;;;;;69.37;32.30;;;;;;;-1.42;87.94;100506.19;5134684;27;20200;-68
2022/12/10 03:31:50;;;;;;;74.80;32.90;;;;;;;-1.38;88.00;100506.09;5133991;27;20177;-68
2022/12/10 03:34:16;;;;;;;72.73;31.93;;;;;;;-1.41;87.85;100507.91;5134484;27;20216;-68
2022/12/10 03:36:44;;;;;;;66.20;33.03;;;;;;;-1.40;88.53;100512.28;5134605;27;20520;-68
2022/12/10 03:39:12;;;;;;;70.07;33.37;;;;;;;-1.40;87.92;100521.00;5134833;27;20189;-68
2022/12/10 03:41:38;;;;;;;66.10;32.17;;;;;;;-1.41;88.06;100519.31;5134240;27;20187;-68
2022/12/10 03:44:05;;;;;;;85.07;34.10;;;;;;;-1.38;88.70;100527.09;5134425;27;20214;-68
2022/12/10 03:46:32;;;;;;;76.13;32.30;;;;;;;-1.35;87.96;100527.00;5134208;28;20196;-68
2022/12/10 03:48:59;;;;;;;73.90;32.27;;;;;;;-1.36;88.72;100525.28;5134161;28;20677;-68
2022/12/10 03:51:26;;;;;;;68.27;33.40;;;;;;;-1.29;88.57;100528.63;5134168;28;20187;-68
2022/12/10 03:53:52;;;;;;;69.50;32.60;;;;;;;-1.29;88.21;100524.22;5134253;28;20207;-68
2022/12/10 03:56:20;;;;;;;65.80;32.37;;;;;;;-1.29;88.48;100518.97;5134153;28;20193;-68
2022/12/10 03:58:47;;;;;;;80.73;33.23;;;;;;;-1.24;88.82;100525.88;5134386;28;20197;-68
2022/12/10 04:01:15;;;;;;;77.40;36.70;;;;;;;-1.18;88.69;100528.31;5134119;28;20181;-68
2022/12/10 04:03:43;;;;;;;83.97;35.03;;;;;;;-1.12;88.56;100520.28;5134295;28;20180;-68
2022/12/10 04:06:13;;;;;;;77.53;34.77;;;;;;;-1.12;88.60;100521.16;5133995;28;20195;-68
2022/12/10 04:08:40;;;;;;;79.93;35.43;;;;;;;-1.14;88.38;100515.06;5134347;28;20171;-68
2022/12/10 04:11:09;;;;;;;75.37;35.80;;;;;;;-1.10;88.91;100514.09;5134619;28;20195;-68
2022/12/10 04:16:26;;;;;;;78.00;32.90;;;;;;;-1.09;88.18;100520.22;5134267;28;20169;-68
2022/12/10 04:19:13;;;;;;;74.70;33.67;;;;;;;-1.10;88.89;100511.47;5134540;28;20262;-68
2022/12/10 04:27:24;;;;;;;70.23;32.33;;;;;;;-1.07;88.54;100518.41;5134202;28;20169;-68
2022/12/10 04:29:50;;;;;;;68.27;31.97;;;;;;;-1.05;88.48;100519.22;5134416;28;20631;-68
2022/12/10 04:32:17;;;;;;;72.83;34.23;;;;;;;-1.05;89.09;100521.84;5134073;28;20190;-68
2022/12/10 04:34:44;;;;;;;77.50;34.17;;;;;;;-1.05;89.20;100513.97;5133632;28;20227;-68
2022/12/10 04:37:13;;;;;;;67.40;30.77;;;;;;;-1.04;89.25;100512.19;5133750;28;20195;-68
2022/12/10 04:39:40;;;;;;;63.63;31.57;;;;;;;-1.03;88.82;100519.16;5134262;28;20203;-68
2022/12/10 04:42:07;;;;;;;65.87;31.20;;;;;;;-1.06;88.23;100509.59;5134383;27;20231;-68
2022/12/10 04:44:34;;;;;;;75.20;32.37;;;;;;;-1.09;89.21;100514.94;5137621;27;20210;-68
2022/12/10 04:47:02;;;;;;;68.10;31.70;;;;;;;-1.09;89.26;100518.44;5137427;27;20184;-68
2022/12/10 04:49:29;;;;;;;61.47;30.33;;;;;;;-1.10;89.22;100511.47;5137401;27;20192;-68
2022/12/10 04:51:55;;;;;;;68.67;32.07;;;;;;;-1.09;89.17;100515.81;5137646;27;20183;-68
2022/12/10 04:54:22;;;;;;;72.97;33.70;;;;;;;-1.12;89.20;100507.16;5137192;27;20212;-68
2022/12/10 04:56:49;;;;;;;74.47;35.60;;;;;;;-1.12;88.56;100520.28;5137267;27;20194;-68
2022/12/10 04:59:16;;;;;;;68.80;32.23;;;;;;;-1.14;88.85;100509.81;5137812;27;20657;-68
2022/12/10 05:01:43;;;;;;;62.80;31.97;;;;;;;-1.16;89.07;100516.88;5137763;27;20189;-68
2022/12/10 05:04:11;;;;;;;66.23;32.00;;;;;;;-1.17;88.18;100516.94;5137033;27;20232;-68
2022/12/10 05:06:38;;;;;;;72.57;33.23;;;;;;;-1.20;88.48;100519.63;5137455;27;20565;-68
2022/12/10 05:09:05;;;;;;;66.70;31.20;;;;;;;-1.29;88.73;100512.88;5137600;27;20642;-68
2022/12/10 05:11:32;;;;;;;65.43;31.70;;;;;;;-1.35;88.59;100520.91;5137016;27;20189;-68
2022/12/10 05:13:59;;;;;;;75.17;33.83;;;;;;;-1.36;88.39;100516.56;5137041;27;20687;-68
2022/12/10 05:16:28;;;;;;;70.30;32.77;;;;;;;-1.37;88.55;100523.56;5137193;27;20187;-68
2022/12/10 05:18:56;;;;;;;65.63;30.70;;;;;;;-1.40;88.70;100528.91;5136837;27;20182;-68
2022/12/10 05:21:24;;;;;;;80.43;35.27;;;;;;;-1.48;88.29;100530.88;5136698;27;20196;-68
2022/12/10 05:23:51;;;;;;;74.83;33.10;;;;;;;-1.51;88.02;100526.56;5136680;27;20179;-68
2022/12/10 05:26:21;;;;;;;70.23;33.60;;;;;;;-1.54;87.36;100531.88;5136651;27;20194;-68
2022/12/10 05:28:53;;;;;;;71.97;32.27;;;;;;;-1.61;87.85;100534.69;5137259;27;20188;-68
2022/12/10 05:31:28;;;;;;;65.67;31.43;;;;;;;-1.66;88.01;100524.31;5136667;27;20177;-68
2022/12/10 05:33:55;;;;;;;74.37;33.40;;;;;;;-1.67;88.36;100524.34;5136734;27;20203;-67
2022/12/10 05:36:28;;;;;;;81.70;36.80;;;;;;;-1.59;88.26;100527.63;5136823;27;20174;-67
2022/12/10 05:38:56;;;;;;;69.73;33.63;;;;;;;-1.63;88.39;100526.84;5136798;27;20174;-67
2022/12/10 05:41:27;;;;;;;74.93;35.17;;;;;;;-1.65;88.39;100526.03;5136799;27;20506;-67
2022/12/10 05:43:54;;;;;;;66.50;31.27;;;;;;;-1.72;88.19;100527.09;5136893;27;20539;-67
2022/12/10 05:46:24;;;;;;;65.43;31.37;;;;;;;-1.73;89.16;100531.47;5136922;27;20179;-67
2022/12/10 05:48:51;;;;;;;66.50;32.67;;;;;;;-1.73;88.38;100536.72;5136345;27;20190;-67
2022/12/10 05:51:21;;;;;;;70.30;33.60;;;;;;;-1.77;88.29;100528.97;5136716;27;20183;-67
2022/12/10 05:53:48;;;;;;;74.03;32.83;;;;;;;-1.76;88.93;100547.28;5135642;27;20576;-67
2022/12/10 05:56:20;;;;;;;64.47;32.80;;;;;;;-1.75;88.14;100546.41;5136465;27;20180;-67
2022/12/10 05:58:49;;;;;;;63.23;31.70;;;;;;;-1.79;88.51;100543.88;5136496;27;20180;-67
2022/12/10 06:01:19;;;;;;;73.20;30.90;;;;;;;-1.88;88.60;100539.72;5136159;27;20194;-67
2022/12/10 06:03:46;;;;;;;79.33;36.13;;;;;;;-1.96;88.02;100542.53;5136294;27;20180;-67
2022/12/10 06:06:12;;;;;;;61.00;32.37;;;;;;;-1.93;88.73;100541.59;5136038;27;20189;-67
2022/12/10 06:08:39;;;;;;;81.17;36.37;;;;;;;-1.99;88.82;100544.34;5136156;27;20187;-68
2022/12/10 06:11:10;;;;;;;66.73;32.20;;;;;;;-1.96;88.15;100542.53;5117462;27;20189;-68
2022/12/10 06:13:37;;;;;;;78.57;34.77;;;;;;;-1.96;88.71;100544.28;5135753;27;20194;-67
2022/12/10 06:16:06;;;;;;;68.80;32.20;;;;;;;-1.95;88.85;100549.47;5135657;27;20208;-67
2022/12/10 06:18:32;;;;;;;67.77;33.87;;;;;;;-1.96;88.67;100545.16;5135640;27;20721;-67
2022/12/10 06:20:58;;;;;;;70.03;33.47;;;;;;;-2.06;87.87;100546.28;5135754;27;20669;-67
2022/12/10 06:23:25;;;;;;;73.10;31.23;;;;;;;-2.07;87.67;100549.78;5136412;27;20193;-67
2022/12/10 06:25:51;;;;;;;81.60;34.47;;;;;;;-2.16;87.71;100545.59;5135999;27;20212;-67
2022/12/10 06:28:17;;;;;;;77.73;33.10;;;;;;;-2.17;88.19;100556.13;5136000;27;20195;-67
2022/12/10 06:30:44;;;;;;;71.50;34.37;;;;;;;-2.17;87.86;100549.13;5135458;27;20181;-68
2022/12/10 06:33:10;;;;;;;77.37;33.47;;;;;;;-2.18;88.71;100549.13;5135909;27;20183;-68
2022/12/10 06:35:37;;;;;;;74.60;31.27;;;;;;;-2.18;88.27;100550.03;5136164;27;20204;-68
2022/12/10 06:38:03;;;;;;;82.60;34.27;;;;;;;-2.19;88.86;100555.28;5135321;27;20185;-68
2022/12/10 06:40:30;;;;;;;62.87;31.20;;;;;;;-2.20;88.20;100556.22;5135516;27;20172;-68
2022/12/10 06:42:56;;;;;;;70.70;34.20;;;;;;;-2.25;88.84;100558.94;5135764;27;20181;-68
2022/12/10 06:45:22;;;;;;;67.60;32.50;;;;;;;-2.23;88.05;100557.09;5135077;27;20201;-68
2022/12/10 06:47:49;;;;;;;75.43;34.57;;;;;;;-2.24;88.95;100562.41;5135427;27;20251;-68
2022/12/10 06:50:15;;;;;;;73.57;33.43;;;;;;;-2.24;88.94;100562.41;5135287;27;20207;-68
2022/12/10 06:52:41;;;;;;;91.50;36.63;;;;;;;-2.18;88.53;100571.00;5134949;27;20558;-68
2022/12/10 06:55:08;;;;;;;87.70;36.17;;;;;;;-2.19;88.77;100573.66;5134951;27;20636;-68
2022/12/10 06:57:34;;;;;;;92.87;34.97;;;;;;;-2.12;89.32;100575.25;5135459;27;20185;-68
2022/12/10 07:00:00;;;;;;;88.43;35.03;;;;;;;-2.20;89.37;100579.81;5135198;27;20288;-68
2022/12/10 07:02:27;;;;;;;107.10;39.73;;;;;;;-2.24;89.72;100573.75;5135170;27;20265;-68
2022/12/10 07:04:56;;;;;;;91.30;37.37;;;;;;;-2.29;90.11;100577.38;5134572;27;20210;-68
2022/12/10 07:07:22;;;;;;;100.63;36.37;;;;;;;-2.30;90.27;100587.00;5134304;27;20195;-68
2022/12/10 07:09:49;;;;;;;87.23;36.27;;;;;;;-2.30;89.91;100591.38;5135284;27;20187;-68
2022/12/10 07:12:15;;;;;;;92.20;34.57;;;;;;;-2.23;90.46;100588.59;5135226;27;20179;-68
2022/12/10 07:14:41;;;;;;;122.40;37.30;;;;;;;-2.25;90.82;100592.13;5134768;27;20216;-68
2022/12/10 07:17:08;;;;;;;97.47;35.97;;;;;;;-2.25;90.50;100590.41;5134594;27;20195;-68
2022/12/10 07:19:34;;;;;;;99.23;36.00;;;;;;;-2.16;90.74;100590.19;5134835;27;20554;-68
2022/12/10 07:22:00;;;;;;;105.17;36.60;;;;;;;-2.17;90.67;100596.34;5134447;27;20188;-68
2022/12/10 07:24:27;;;;;;;95.23;35.87;;;;;;;-2.13;90.96;100597.16;5134422;27;20224;-68
2022/12/10 07:26:53;;;;;;;93.77;33.93;;;;;;;-2.05;90.23;100599.59;5134405;27;20187;-68
2022/12/10 07:29:21;;;;;;;93.73;35.43;;;;;;;-2.04;90.64;100606.56;5134719;27;20192;-68
2022/12/10 07:31:48;;;;;;;129.37;36.87;;;;;;;-1.96;90.36;100613.38;5134615;27;20198;-68
2022/12/10 07:34:15;;;;;;;115.83;39.47;;;;;;;-1.90;90.64;100617.59;5134776;27;20216;-68
2022/12/10 07:36:41;;;;;;;130.30;40.13;;;;;;;-1.96;90.81;100621.25;5134871;27;20635;-68
2022/12/10 07:39:09;;;;;;;105.73;38.57;;;;;;;-1.95;91.35;100624.72;5134590;27;20558;-68
2022/12/10 07:41:35;;;;;;;164.53;42.53;;;;;;;-1.91;91.01;100617.66;5134297;27;20251;-68
2022/12/10 07:44:06;;;;;;;130.13;39.87;;;;;;;-1.94;90.46;100619.44;5134463;27;20211;-68
2022/12/10 07:46:33;;;;;;;122.53;39.20;;;;;;;-1.92;91.27;100616.78;5134551;28;20189;-68
2022/12/10 07:49:01;;;;;;;136.37;43.77;;;;;;;-1.91;90.94;100622.91;5134455;28;20535;-68
2022/12/10 07:51:27;;;;;;;151.27;42.37;;;;;;;-1.86;91.25;100624.53;5134226;28;20204;-68
2022/12/10 07:53:54;;;;;;;147.83;43.73;;;;;;;-1.87;91.97;100625.41;5134055;28;20697;-68
2022/12/10 07:56:22;;;;;;;147.93;43.27;;;;;;;-1.82;91.66;100630.56;5134150;28;20523;-68
2022/12/10 07:58:48;;;;;;;137.27;42.77;;;;;;;-1.80;91.47;100629.63;5134318;28;20646;-68
2022/12/10 08:01:18;;;;;;;150.93;42.13;;;;;;;-1.78;91.72;100638.31;5134332;28;20189;-68
2022/12/10 08:03:44;;;;;;;162.00;43.20;;;;;;;-1.69;91.97;100626.75;5134224;28;20593;-68
2022/12/10 08:06:16;;;;;;;156.03;41.53;;;;;;;-1.64;91.66;100637.16;5134308;28;20186;-68
2022/12/10 08:08:44;;;;;;;155.37;43.73;;;;;;;-1.62;91.60;100638.00;5134062;28;20177;-68
2022/12/10 08:11:12;;;;;;;165.90;45.97;;;;;;;-1.50;91.56;100633.31;5133971;28;20653;-68
2022/12/10 08:13:39;;;;;;;162.17;45.73;;;;;;;-1.52;91.48;100640.34;5133911;28;20187;-68
2022/12/10 08:16:15;;;;;;;169.90;46.13;;;;;;;-1.46;91.48;100647.25;5134178;28;20233;-68
2022/12/10 08:18:42;;;;;;;162.77;47.00;;;;;;;-1.44;90.78;100641.94;5137690;27;20173;-68
2022/12/10 08:21:12;;;;;;;129.53;42.27;;;;;;;-1.47;91.40;100658.63;5137835;27;20198;-68
2022/12/10 08:23:40;;;;;;;131.97;42.13;;;;;;;-1.44;91.23;100661.16;5137899;27;20186;-68
2022/12/10 08:26:10;;;;;;;135.73;42.27;;;;;;;-1.41;90.76;100658.50;5138192;27;20240;-68
2022/12/10 08:28:37;;;;;;;123.27;41.40;;;;;;;-1.40;90.95;100657.59;5137870;27;20536;-68
2022/12/10 08:31:04;;;;;;;116.50;39.47;;;;;;;-1.43;90.78;100665.53;5138040;27;20190;-68
2022/12/10 08:33:34;;;;;;;125.53;40.37;;;;;;;-1.33;90.50;100659.16;5137986;27;20189;-69
2022/12/10 08:36:01;;;;;;;121.13;37.33;;;;;;;-1.36;90.74;100666.28;5137603;27;20216;-69
2022/12/10 08:38:29;;;;;;;135.50;39.90;;;;;;;-1.30;90.87;100661.72;5137936;27;20201;-68
2022/12/10 08:40:56;;;;;;;118.53;35.97;;;;;;;-1.23;91.15;100667.69;5137812;27;20182;-68
2022/12/10 08:43:23;;;;;;;105.43;36.27;;;;;;;-1.27;90.71;100662.53;5137280;27;20216;-68
2022/12/10 08:45:50;;;;;;;119.43;39.13;;;;;;;-1.29;90.44;100668.72;5119035;27;20211;-68
2022/12/10 08:48:16;;;;;;;110.63;39.50;;;;;;;-1.20;90.38;100664.97;5137402;27;20195;-68
2022/12/10 08:50:43;;;;;;;115.33;38.73;;;;;;;-1.23;90.12;100682.59;5137391;27;20184;-68
2022/12/10 08:53:09;;;;;;;112.43;37.83;;;;;;;-1.16;90.02;100676.28;5137375;27;20180;-68
2022/12/10 08:55:39;;;;;;;109.50;37.73;;;;;;;-1.11;89.72;100671.78;5137244;27;20213;-68
2022/12/10 08:58:12;;;;;;;97.93;35.57;;;;;;;-1.20;89.30;100690.38;5137559;27;20181;-68
2022/12/10 09:00:39;;;;;;;120.63;38.77;;;;;;;-1.26;89.03;100687.94;5137241;27;20186;-68
2022/12/10 09:03:05;;;;;;;113.73;37.03;;;;;;;-1.10;89.61;100684.03;5137179;27;20213;-68
2022/12/10 09:05:34;;;;;;;125.03;36.73;;;;;;;-1.04;88.94;100693.53;5137118;27;20199;-68
2022/12/10 09:08:00;;;;;;;119.57;40.67;;;;;;;-1.05;89.51;100691.78;5137039;27;20195;-68
2022/12/10 09:10:26;;;;;;;122.07;37.40;;;;;;;-1.08;88.95;100690.09;5137058;27;20218;-68
2022/12/10 09:12:53;;;;;;;112.93;36.57;;;;;;;-0.99;88.87;100694.25;5137236;27;20194;-68
2022/12/10 09:15:28;;;;;;;111.23;37.07;;;;;;;-0.97;88.74;100698.59;5137099;27;20233;-68
2022/12/10 09:17:54;;;;;;;116.87;37.97;;;;;;;-0.94;89.11;100706.38;5137065;27;20183;-68
2022/12/10 09:20:21;;;;;;;135.67;39.90;;;;;;;-0.91;88.41;100706.31;5137076;27;20200;-68
2022/12/10 09:22:47;;;;;;;141.38;47.33;;;;;;;-1.04;88.14;100704.88;5136471;27;20419;-68
2022/12/10 09:25:16;;;;;;;123.83;42.97;;;;;;;-0.91;88.89;100710.69;5136708;27;20199;-68
2022/12/10 09:27:43;;;;;;;136.17;41.07;;;;;;;-0.93;87.86;100717.78;5136602;27;20623;-68
2022/12/10 09:30:11;;;;;;;132.17;42.50;;;;;;;-0.92;87.95;100711.59;5136154;27;20184;-68
2022/12/10 09:32:37;;;;;;;140.63;43.50;;;;;;;-0.92;88.04;100720.34;5136649;27;20618;-68
2022/12/10 09:35:05;;;;;;;132.07;39.53;;;;;;;-0.88;87.12;100719.38;5136786;27;20212;-68
2022/12/10 09:37:32;;;;;;;130.70;39.87;;;;;;;-0.87;88.09;100714.97;5136987;27;20183;-68
2022/12/10 09:39:58;;;;;;;110.40;40.67;;;;;;;-0.84;88.15;100720.16;5136697;27;20183;-68
2022/12/10 09:42:44;;;;;;;125.23;41.20;;;;;;;-0.84;88.02;100716.66;5136404;27;20200;-68
2022/12/10 09:45:36;;;;;;;142.30;41.00;;;;;;;-0.86;87.57;100716.72;5137082;27;20202;-68
2022/12/10 09:48:25;;;;;;;137.60;41.77;;;;;;;-0.87;87.00;100710.59;5136622;27;20180;-68
2022/12/10 09:51:11;;;;;;;131.60;43.40;;;;;;;-0.86;87.25;100714.97;5136846;27;20173;-68
2022/12/10 09:53:39;;;;;;;143.87;43.40;;;;;;;-0.93;86.67;100712.53;5136218;27;20180;-68
2022/12/10 09:56:06;;;;;;;137.73;43.70;;;;;;;-0.96;87.32;100710.84;5136544;27;20566;-68
2022/12/10 09:58:35;;;;;;;138.33;42.47;;;;;;;-1.00;87.62;100709.19;5136069;27;20545;-68
2022/12/10 10:01:04;;;;;;;149.50;42.50;;;;;;;-1.05;87.02;100718.94;5136431;27;20202;-68
2022/12/10 10:03:38;;;;;;;129.27;41.73;;;;;;;-0.93;87.05;100708.13;5136055;27;20187;-68
2022/12/10 10:06:05;;;;;;;134.37;41.63;;;;;;;-0.97;87.57;100711.72;5136401;27;20204;-68
2022/12/10 10:08:42;;;;;;;138.07;43.17;;;;;;;-0.87;87.34;100710.59;5136268;27;20206;-68
2022/12/10 10:11:17;;;;;;;147.93;43.07;;;;;;;-0.91;87.30;100703.69;5136133;27;20177;-68
2022/12/10 10:13:57;;;;;;;144.10;44.73;;;;;;;-0.98;87.40;100704.75;5136034;27;20205;-68
2022/12/10 10:16:40;;;;;;;126.77;42.80;;;;;;;-1.09;86.41;100715.50;5135964;27;20217;-68
2022/12/10 10:19:14;;;;;;;129.53;40.57;;;;;;;-1.16;86.74;100710.44;5135726;27;20258;-68
2022/12/10 10:21:44;;;;;;;131.47;41.70;;;;;;;-1.34;87.99;100712.59;5135588;27;20228;-68
2022/12/10 10:24:17;;;;;;;125.83;38.47;;;;;;;-1.37;87.66;100719.69;5135435;27;20207;-68
2022/12/10 10:26:45;;;;;;;133.37;41.50;;;;;;;-1.46;88.07;100718.16;5135453;27;20657;-68
2022/12/10 10:29:15;;;;;;;128.67;40.37;;;;;;;-1.40;88.52;100720.63;5135394;27;20181;-68
2022/12/10 10:31:42;;;;;;;117.43;39.83;;;;;;;-1.38;88.04;100718.81;5135415;27;20187;-68
2022/12/10 10:34:26;;;;;;;120.67;38.53;;;;;;;-1.39;87.81;100717.09;5135574;27;20221;-68
2022/12/10 10:36:57;;;;;;;125.43;40.03;;;;;;;-1.45;88.59;100713.75;5135612;27;20188;-68
2022/12/10 10:39:29;;;;;;;116.70;39.10;;;;;;;-1.40;88.08;100719.75;5135582;27;20185;-68
2022/12/10 10:41:58;;;;;;;114.90;39.63;;;;;;;-1.41;87.77;100718.00;5135038;27;20183;-69
2022/12/10 10:44:35;;;;;;;129.43;40.17;;;;;;;-1.44;88.40;100712.84;5135128;27;20206;-69
2022/12/10 10:47:01;;;;;;;109.27;36.07;;;;;;;-1.46;88.14;100710.28;5135629;27;20629;-69
2022/12/10 10:49:33;;;;;;;105.03;36.07;;;;;;;-1.57;88.40;100709.63;5135267;27;20256;-69
2022/12/10 10:52:13;;;;;;;100.57;34.13;;;;;;;-1.60;88.25;100709.72;5135094;27;20181;-69
2022/12/10 10:54:42;;;;;;;129.40;34.37;;;;;;;-1.58;88.17;100716.66;5134779;27;20212;-68
2022/12/10 10:57:27;;;;;;;102.17;34.03;;;;;;;-1.63;88.34;100715.00;5135133;27;20185;-68
2022/12/10 11:00:00;;;;;;;113.40;36.33;;;;;;;-1.60;88.64;100713.19;5135087;27;20517;-68
2022/12/10 11:02:41;;;;;;;109.60;35.03;;;;;;;-1.46;88.36;100720.78;5135113;27;20178;-68
2022/12/10 11:05:17;;;;;;;87.93;33.43;;;;;;;-1.42;88.50;100722.41;5134917;27;20566;-68
2022/12/10 11:07:43;;;;;;;98.87;34.37;;;;;;;-1.38;87.68;100721.44;5135379;27;20176;-68
2022/12/10 11:10:23;;;;;;;109.27;35.20;;;;;;;-1.32;87.63;100726.56;5134669;27;20611;-68
2022/12/10 11:13:04;;;;;;;102.30;36.03;;;;;;;-1.30;87.51;100730.00;5134940;27;20189;-68
2022/12/10 11:15:34;;;;;;;119.73;38.03;;;;;;;-1.31;87.90;100722.19;5134466;27;20226;-68
2022/12/10 11:18:02;;;;;;;102.83;36.73;;;;;;;-1.25;87.95;100722.03;5134951;27;20167;-68
2022/12/10 11:20:34;;;;;;;103.57;36.63;;;;;;;-1.22;87.32;100726.34;5134633;27;20199;-68
2022/12/10 11:23:13;;;;;;;100.53;33.87;;;;;;;-1.19;87.25;100724.53;5134881;27;20185;-68
2022/12/10 11:25:50;;;;;;;100.27;35.03;;;;;;;-1.19;87.67;100721.88;5134506;27;20303;-68
2022/12/10 11:29:01;;;;;;;108.57;36.27;;;;;;;-1.22;87.49;100702.69;5134494;27;20263;-68